sensor_id;sensor_type;location;lat;lon;timestamp;temperature;humidity
25951;DHT22;13748;52.240;6.002;2023-01-19T00:00:33;2.00;99.90
25951;DHT22;13748;52.240;6.002;2023-01-19T00:03:00;1.90;99.90
25951;DHT22;13748;52.240;6.002;2023-01-19T00:05:28;1.90;99.90
25951;DHT22;13748;52.240;6.002;2023-01-19T00:07:55;1.90;99.90
25951;DHT22;13748;52.240;6.002;2023-01-19T00:10:22;1.80;99.90
25951;DHT22;13748;52.240;6.002;2023-01-19T00:12:49;1.80;99.90
25951;DHT22;13748;52.240;6.002;2023-01-19T00:15:15;1.80;99.90
25951;DHT22;13748;52.240;6.002;2023-01-19T00:17:42;1.80;99.90
25951;DHT22;13748;52.240;6.002;2023-01-19T00:20:09;1.80;99.90
25951;DHT22;13748;52.240;6.002;2023-01-19T00:22:36;1.70;99.90
25951;DHT22;13748;52.240;6.002;2023-01-19T00:25:03;1.70;99.90
25951;DHT22;13748;52.240;6.002;2023-01-19T00:27:29;1.80;99.90
25951;DHT22;13748;52.240;6.002;2023-01-19T00:30:00;1.70;99.90
25951;DHT22;13748;52.240;6.002;2023-01-19T00:32:27;1.70;99.90
25951;DHT22;13748;52.240;6.002;2023-01-19T00:34:54;1.80;99.90
25951;DHT22;13748;52.240;6.002;2023-01-19T00:37:20;1.80;99.90
25951;DHT22;13748;52.240;6.002;2023-01-19T00:39:47;1.80;99.90
25951;DHT22;13748;52.240;6.002;2023-01-19T00:42:14;1.80;99.90
25951;DHT22;13748;52.240;6.002;2023-01-19T00:44:59;1.80;99.90
25951;DHT22;13748;52.240;6.002;2023-01-19T00:47:26;1.80;99.90
25951;DHT22;13748;52.240;6.002;2023-01-19T00:49:52;1.80;99.90
25951;DHT22;13748;52.240;6.002;2023-01-19T00:52:19;1.80;99.90
25951;DHT22;13748;52.240;6.002;2023-01-19T00:54:46;1.80;99.90
25951;DHT22;13748;52.240;6.002;2023-01-19T00:57:14;1.80;99.90
25951;DHT22;13748;52.240;6.002;2023-01-19T00:59:41;1.80;99.90
25951;DHT22;13748;52.240;6.002;2023-01-19T01:02:08;1.70;99.90
25951;DHT22;13748;52.240;6.002;2023-01-19T01:04:35;1.70;99.90
25951;DHT22;13748;52.240;6.002;2023-01-19T01:07:02;1.70;99.90
25951;DHT22;13748;52.240;6.002;2023-01-19T01:09:29;1.60;99.90
25951;DHT22;13748;52.240;6.002;2023-01-19T01:11:56;1.60;99.90
25951;DHT22;13748;52.240;6.002;2023-01-19T01:14:23;1.60;99.90
25951;DHT22;13748;52.240;6.002;2023-01-19T01:16:50;1.60;99.90
25951;DHT22;13748;52.240;6.002;2023-01-19T01:19:16;1.60;99.90
25951;DHT22;13748;52.240;6.002;2023-01-19T01:21:43;1.70;99.90
25951;DHT22;13748;52.240;6.002;2023-01-19T01:24:10;1.70;99.90
25951;DHT22;13748;52.240;6.002;2023-01-19T01:26:37;1.80;99.90
25951;DHT22;13748;52.240;6.002;2023-01-19T01:29:04;1.80;99.90
25951;DHT22;13748;52.240;6.002;2023-01-19T01:31:31;1.80;99.90
25951;DHT22;13748;52.240;6.002;2023-01-19T01:33:58;1.90;99.90
25951;DHT22;13748;52.240;6.002;2023-01-19T01:36:25;1.90;99.90
25951;DHT22;13748;52.240;6.002;2023-01-19T01:38:54;2.00;99.90
25951;DHT22;13748;52.240;6.002;2023-01-19T01:41:21;2.00;99.90
25951;DHT22;13748;52.240;6.002;2023-01-19T01:43:54;2.10;99.90
25951;DHT22;13748;52.240;6.002;2023-01-19T01:46:25;2.20;99.90
25951;DHT22;13748;52.240;6.002;2023-01-19T01:49:07;2.20;99.90
25951;DHT22;13748;52.240;6.002;2023-01-19T01:51:39;2.20;99.90
25951;DHT22;13748;52.240;6.002;2023-01-19T01:54:30;2.20;99.90
25951;DHT22;13748;52.240;6.002;2023-01-19T01:57:01;2.20;99.90
25951;DHT22;13748;52.240;6.002;2023-01-19T01:59:32;2.20;99.90
25951;DHT22;13748;52.240;6.002;2023-01-19T02:02:08;2.20;99.90
25951;DHT22;13748;52.240;6.002;2023-01-19T02:05:00;2.20;99.90
25951;DHT22;13748;52.240;6.002;2023-01-19T02:10:39;2.20;99.90
25951;DHT22;13748;52.240;6.002;2023-01-19T02:13:27;2.20;99.90
25951;DHT22;13748;52.240;6.002;2023-01-19T02:15:57;2.20;99.90
25951;DHT22;13748;52.240;6.002;2023-01-19T02:18:27;2.20;99.90
25951;DHT22;13748;52.240;6.002;2023-01-19T02:23:54;2.10;99.90
25951;DHT22;13748;52.240;6.002;2023-01-19T02:26:23;2.00;99.90
25951;DHT22;13748;52.240;6.002;2023-01-19T02:29:00;2.00;99.90
25951;DHT22;13748;52.240;6.002;2023-01-19T02:31:29;2.00;99.90
25951;DHT22;13748;52.240;6.002;2023-01-19T02:33:57;2.00;99.90
25951;DHT22;13748;52.240;6.002;2023-01-19T02:36:29;1.80;99.90
25951;DHT22;13748;52.240;6.002;2023-01-19T02:38:59;1.70;99.90
25951;DHT22;13748;52.240;6.002;2023-01-19T02:41:30;1.60;99.90
25951;DHT22;13748;52.240;6.002;2023-01-19T02:43:59;1.50;99.90
25951;DHT22;13748;52.240;6.002;2023-01-19T02:46:26;1.50;99.90
25951;DHT22;13748;52.240;6.002;2023-01-19T02:48:57;1.50;99.90
25951;DHT22;13748;52.240;6.002;2023-01-19T02:51:24;1.40;99.90
25951;DHT22;13748;52.240;6.002;2023-01-19T02:54:15;1.40;99.90
25951;DHT22;13748;52.240;6.002;2023-01-19T03:11:07;1.40;99.90
25951;DHT22;13748;52.240;6.002;2023-01-19T03:13:53;1.50;99.90
25951;DHT22;13748;52.240;6.002;2023-01-19T03:16:38;1.50;99.90
25951;DHT22;13748;52.240;6.002;2023-01-19T03:19:25;1.50;99.90
25951;DHT22;13748;52.240;6.002;2023-01-19T03:22:06;1.50;99.90
25951;DHT22;13748;52.240;6.002;2023-01-19T03:24:37;1.50;99.90
25951;DHT22;13748;52.240;6.002;2023-01-19T03:27:10;1.60;99.90
25951;DHT22;13748;52.240;6.002;2023-01-19T03:29:41;1.60;99.90
25951;DHT22;13748;52.240;6.002;2023-01-19T03:32:14;1.70;99.90
25951;DHT22;13748;52.240;6.002;2023-01-19T03:34:42;1.70;99.90
25951;DHT22;13748;52.240;6.002;2023-01-19T03:37:10;1.80;99.90
25951;DHT22;13748;52.240;6.002;2023-01-19T03:39:40;1.80;99.90
25951;DHT22;13748;52.240;6.002;2023-01-19T03:42:11;1.80;99.90
25951;DHT22;13748;52.240;6.002;2023-01-19T03:44:41;1.90;99.90
25951;DHT22;13748;52.240;6.002;2023-01-19T03:47:10;1.90;99.90
25951;DHT22;13748;52.240;6.002;2023-01-19T03:49:40;1.90;99.90
25951;DHT22;13748;52.240;6.002;2023-01-19T03:52:08;2.00;99.90
25951;DHT22;13748;52.240;6.002;2023-01-19T03:54:36;2.00;99.90
25951;DHT22;13748;52.240;6.002;2023-01-19T03:57:03;2.10;99.90
25951;DHT22;13748;52.240;6.002;2023-01-19T03:59:29;2.10;99.90
25951;DHT22;13748;52.240;6.002;2023-01-19T04:01:56;2.10;99.90
25951;DHT22;13748;52.240;6.002;2023-01-19T04:04:23;2.20;99.90
25951;DHT22;13748;52.240;6.002;2023-01-19T04:06:51;2.10;99.90
25951;DHT22;13748;52.240;6.002;2023-01-19T04:09:17;2.20;99.90
25951;DHT22;13748;52.240;6.002;2023-01-19T04:11:45;2.10;99.90
25951;DHT22;13748;52.240;6.002;2023-01-19T04:14:12;2.10;99.90
25951;DHT22;13748;52.240;6.002;2023-01-19T04:16:39;2.10;99.90
25951;DHT22;13748;52.240;6.002;2023-01-19T04:19:05;2.10;99.90
25951;DHT22;13748;52.240;6.002;2023-01-19T04:21:32;2.10;99.90
25951;DHT22;13748;52.240;6.002;2023-01-19T04:23:59;2.10;99.90
25951;DHT22;13748;52.240;6.002;2023-01-19T04:26:26;2.20;99.90
25951;DHT22;13748;52.240;6.002;2023-01-19T04:28:53;2.30;99.90
25951;DHT22;13748;52.240;6.002;2023-01-19T04:31:20;2.30;99.90
25951;DHT22;13748;52.240;6.002;2023-01-19T04:33:48;2.40;99.90
25951;DHT22;13748;52.240;6.002;2023-01-19T04:36:15;2.40;99.90
25951;DHT22;13748;52.240;6.002;2023-01-19T04:38:42;2.40;99.90
25951;DHT22;13748;52.240;6.002;2023-01-19T04:41:12;2.50;99.90
25951;DHT22;13748;52.240;6.002;2023-01-19T04:43:38;2.50;99.90
25951;DHT22;13748;52.240;6.002;2023-01-19T04:46:05;2.50;99.90
25951;DHT22;13748;52.240;6.002;2023-01-19T04:48:32;2.50;99.90
25951;DHT22;13748;52.240;6.002;2023-01-19T04:50:59;2.60;99.90
25951;DHT22;13748;52.240;6.002;2023-01-19T04:53:25;2.60;99.90
25951;DHT22;13748;52.240;6.002;2023-01-19T04:55:53;2.60;99.90
25951;DHT22;13748;52.240;6.002;2023-01-19T04:58:20;2.70;99.90
25951;DHT22;13748;52.240;6.002;2023-01-19T05:00:47;2.70;99.90
25951;DHT22;13748;52.240;6.002;2023-01-19T05:03:14;2.70;99.90
25951;DHT22;13748;52.240;6.002;2023-01-19T05:05:40;2.70;99.90
25951;DHT22;13748;52.240;6.002;2023-01-19T05:08:07;2.70;99.90
25951;DHT22;13748;52.240;6.002;2023-01-19T05:10:34;2.80;99.90
25951;DHT22;13748;52.240;6.002;2023-01-19T05:13:02;2.70;99.90
25951;DHT22;13748;52.240;6.002;2023-01-19T05:15:29;2.80;99.90
25951;DHT22;13748;52.240;6.002;2023-01-19T05:17:56;2.80;99.90
25951;DHT22;13748;52.240;6.002;2023-01-19T05:20:26;2.80;99.90
25951;DHT22;13748;52.240;6.002;2023-01-19T05:22:52;2.80;99.90
25951;DHT22;13748;52.240;6.002;2023-01-19T05:25:19;2.80;99.90
25951;DHT22;13748;52.240;6.002;2023-01-19T05:27:46;2.70;99.90
25951;DHT22;13748;52.240;6.002;2023-01-19T05:30:13;2.70;99.90
25951;DHT22;13748;52.240;6.002;2023-01-19T05:32:40;2.70;99.90
25951;DHT22;13748;52.240;6.002;2023-01-19T05:35:07;2.80;99.90
25951;DHT22;13748;52.240;6.002;2023-01-19T05:37:34;2.80;99.90
25951;DHT22;13748;52.240;6.002;2023-01-19T05:40:00;2.80;99.90
25951;DHT22;13748;52.240;6.002;2023-01-19T05:42:27;2.80;99.90
25951;DHT22;13748;52.240;6.002;2023-01-19T05:44:55;2.80;99.90
25951;DHT22;13748;52.240;6.002;2023-01-19T05:47:22;2.80;99.90
25951;DHT22;13748;52.240;6.002;2023-01-19T05:49:49;2.80;99.90
25951;DHT22;13748;52.240;6.002;2023-01-19T05:52:15;2.80;99.90
25951;DHT22;13748;52.240;6.002;2023-01-19T05:54:42;2.80;99.90
25951;DHT22;13748;52.240;6.002;2023-01-19T05:57:09;2.80;99.90
25951;DHT22;13748;52.240;6.002;2023-01-19T05:59:36;2.70;99.90
25951;DHT22;13748;52.240;6.002;2023-01-19T06:02:02;2.70;99.90
25951;DHT22;13748;52.240;6.002;2023-01-19T06:04:29;2.70;99.90
25951;DHT22;13748;52.240;6.002;2023-01-19T06:06:56;2.70;99.90
25951;DHT22;13748;52.240;6.002;2023-01-19T06:09:23;2.60;99.90
25951;DHT22;13748;52.240;6.002;2023-01-19T06:11:50;2.60;99.90
25951;DHT22;13748;52.240;6.002;2023-01-19T06:14:19;2.60;99.90
25951;DHT22;13748;52.240;6.002;2023-01-19T06:16:46;2.60;99.90
25951;DHT22;13748;52.240;6.002;2023-01-19T06:19:13;2.60;99.90
25951;DHT22;13748;52.240;6.002;2023-01-19T06:21:40;2.60;99.90
25951;DHT22;13748;52.240;6.002;2023-01-19T06:24:08;2.60;99.90
25951;DHT22;13748;52.240;6.002;2023-01-19T06:26:35;2.60;99.90
25951;DHT22;13748;52.240;6.002;2023-01-19T06:29:02;2.60;99.90
25951;DHT22;13748;52.240;6.002;2023-01-19T06:31:29;2.70;99.90
25951;DHT22;13748;52.240;6.002;2023-01-19T06:33:56;2.70;99.90
25951;DHT22;13748;52.240;6.002;2023-01-19T06:36:22;2.80;99.90
25951;DHT22;13748;52.240;6.002;2023-01-19T06:38:49;2.80;99.90
25951;DHT22;13748;52.240;6.002;2023-01-19T06:41:16;2.90;99.90
25951;DHT22;13748;52.240;6.002;2023-01-19T06:43:43;2.90;99.90
25951;DHT22;13748;52.240;6.002;2023-01-19T06:46:09;3.00;99.90
25951;DHT22;13748;52.240;6.002;2023-01-19T06:48:36;3.20;99.90
25951;DHT22;13748;52.240;6.002;2023-01-19T06:51:03;3.20;99.90
25951;DHT22;13748;52.240;6.002;2023-01-19T06:53:31;3.10;99.90
25951;DHT22;13748;52.240;6.002;2023-01-19T06:55:59;3.00;99.90
25951;DHT22;13748;52.240;6.002;2023-01-19T06:58:28;3.00;99.90
25951;DHT22;13748;52.240;6.002;2023-01-19T07:00:54;2.90;99.90
25951;DHT22;13748;52.240;6.002;2023-01-19T07:03:26;2.90;99.90
25951;DHT22;13748;52.240;6.002;2023-01-19T07:05:52;2.90;99.90
25951;DHT22;13748;52.240;6.002;2023-01-19T07:08:19;2.80;99.90
25951;DHT22;13748;52.240;6.002;2023-01-19T07:10:46;2.80;99.90
25951;DHT22;13748;52.240;6.002;2023-01-19T07:13:34;2.80;99.90
25951;DHT22;13748;52.240;6.002;2023-01-19T07:18:34;2.80;99.90
25951;DHT22;13748;52.240;6.002;2023-01-19T07:21:01;2.80;99.90
25951;DHT22;13748;52.240;6.002;2023-01-19T07:23:27;2.80;99.90
25951;DHT22;13748;52.240;6.002;2023-01-19T07:25:58;2.80;99.90
25951;DHT22;13748;52.240;6.002;2023-01-19T07:28:29;2.80;99.90
25951;DHT22;13748;52.240;6.002;2023-01-19T07:30:57;2.80;99.90
25951;DHT22;13748;52.240;6.002;2023-01-19T07:33:27;2.80;99.90
25951;DHT22;13748;52.240;6.002;2023-01-19T07:35:54;2.80;99.90
25951;DHT22;13748;52.240;6.002;2023-01-19T07:38:21;2.80;99.90
25951;DHT22;13748;52.240;6.002;2023-01-19T07:40:48;2.80;99.90
25951;DHT22;13748;52.240;6.002;2023-01-19T07:43:15;2.70;99.90
25951;DHT22;13748;52.240;6.002;2023-01-19T07:45:42;2.70;99.90
25951;DHT22;13748;52.240;6.002;2023-01-19T07:48:10;2.80;99.90
25951;DHT22;13748;52.240;6.002;2023-01-19T07:50:37;2.70;99.90
25951;DHT22;13748;52.240;6.002;2023-01-19T07:53:06;2.80;99.90
25951;DHT22;13748;52.240;6.002;2023-01-19T07:55:33;2.80;99.90
25951;DHT22;13748;52.240;6.002;2023-01-19T07:58:00;2.80;99.90
25951;DHT22;13748;52.240;6.002;2023-01-19T08:00:26;2.70;99.90
25951;DHT22;13748;52.240;6.002;2023-01-19T08:02:58;2.80;99.90
25951;DHT22;13748;52.240;6.002;2023-01-19T08:05:26;2.80;99.90
25951;DHT22;13748;52.240;6.002;2023-01-19T08:07:55;2.80;99.90
25951;DHT22;13748;52.240;6.002;2023-01-19T08:10:24;2.80;99.90
25951;DHT22;13748;52.240;6.002;2023-01-19T08:12:53;2.90;99.90
25951;DHT22;13748;52.240;6.002;2023-01-19T08:15:20;2.90;99.90
25951;DHT22;13748;52.240;6.002;2023-01-19T08:17:54;2.90;99.90
25951;DHT22;13748;52.240;6.002;2023-01-19T08:20:21;2.90;99.90
25951;DHT22;13748;52.240;6.002;2023-01-19T08:22:48;2.90;99.90
25951;DHT22;13748;52.240;6.002;2023-01-19T08:25:15;2.90;99.90
25951;DHT22;13748;52.240;6.002;2023-01-19T08:27:42;3.00;99.90
25951;DHT22;13748;52.240;6.002;2023-01-19T08:30:10;3.00;99.90
25951;DHT22;13748;52.240;6.002;2023-01-19T08:32:37;3.00;99.90
25951;DHT22;13748;52.240;6.002;2023-01-19T08:35:04;3.10;99.90
25951;DHT22;13748;52.240;6.002;2023-01-19T08:37:31;3.10;99.90
25951;DHT22;13748;52.240;6.002;2023-01-19T08:39:59;3.10;99.90
25951;DHT22;13748;52.240;6.002;2023-01-19T08:42:26;3.10;99.90
25951;DHT22;13748;52.240;6.002;2023-01-19T08:44:53;3.10;99.90
25951;DHT22;13748;52.240;6.002;2023-01-19T08:47:24;3.10;99.90
25951;DHT22;13748;52.240;6.002;2023-01-19T08:49:50;3.10;99.90
25951;DHT22;13748;52.240;6.002;2023-01-19T08:52:17;3.20;99.90
25951;DHT22;13748;52.240;6.002;2023-01-19T08:54:44;3.20;99.90
25951;DHT22;13748;52.240;6.002;2023-01-19T08:57:10;3.20;99.90
25951;DHT22;13748;52.240;6.002;2023-01-19T08:59:37;3.20;99.90
25951;DHT22;13748;52.240;6.002;2023-01-19T09:02:04;3.20;99.90
25951;DHT22;13748;52.240;6.002;2023-01-19T09:04:30;3.20;99.90
25951;DHT22;13748;52.240;6.002;2023-01-19T09:06:59;3.20;99.90
25951;DHT22;13748;52.240;6.002;2023-01-19T09:09:26;3.20;99.90
25951;DHT22;13748;52.240;6.002;2023-01-19T09:11:53;3.20;99.90
25951;DHT22;13748;52.240;6.002;2023-01-19T09:14:21;3.20;99.90
25951;DHT22;13748;52.240;6.002;2023-01-19T09:16:47;3.20;99.90
25951;DHT22;13748;52.240;6.002;2023-01-19T09:19:14;3.10;99.90
25951;DHT22;13748;52.240;6.002;2023-01-19T09:21:41;3.10;99.90
25951;DHT22;13748;52.240;6.002;2023-01-19T09:24:07;3.10;99.90
25951;DHT22;13748;52.240;6.002;2023-01-19T09:26:35;3.00;99.90
25951;DHT22;13748;52.240;6.002;2023-01-19T09:29:02;3.00;99.90
25951;DHT22;13748;52.240;6.002;2023-01-19T09:31:28;3.00;99.90
25951;DHT22;13748;52.240;6.002;2023-01-19T09:33:55;2.90;99.90
25951;DHT22;13748;52.240;6.002;2023-01-19T09:36:22;2.90;99.90
25951;DHT22;13748;52.240;6.002;2023-01-19T09:38:49;2.90;99.90
25951;DHT22;13748;52.240;6.002;2023-01-19T09:41:19;2.90;99.90
25951;DHT22;13748;52.240;6.002;2023-01-19T09:43:53;3.00;99.90
25951;DHT22;13748;52.240;6.002;2023-01-19T09:46:58;3.00;99.90
25951;DHT22;13748;52.240;6.002;2023-01-19T09:49:27;3.00;99.90
25951;DHT22;13748;52.240;6.002;2023-01-19T09:51:57;3.00;99.90
25951;DHT22;13748;52.240;6.002;2023-01-19T09:54:35;3.10;99.90
25951;DHT22;13748;52.240;6.002;2023-01-19T09:57:10;3.10;99.90
25951;DHT22;13748;52.240;6.002;2023-01-19T09:59:37;3.10;99.90
25951;DHT22;13748;52.240;6.002;2023-01-19T10:10:32;3.30;99.90
25951;DHT22;13748;52.240;6.002;2023-01-19T10:13:28;3.30;99.90
25951;DHT22;13748;52.240;6.002;2023-01-19T10:16:35;3.30;99.90
25951;DHT22;13748;52.240;6.002;2023-01-19T10:19:21;3.40;99.90
25951;DHT22;13748;52.240;6.002;2023-01-19T10:21:49;3.40;99.90
25951;DHT22;13748;52.240;6.002;2023-01-19T10:24:27;3.40;99.90
25951;DHT22;13748;52.240;6.002;2023-01-19T10:26:55;3.50;99.90
25951;DHT22;13748;52.240;6.002;2023-01-19T10:29:36;3.50;99.90
25951;DHT22;13748;52.240;6.002;2023-01-19T10:32:15;3.50;99.90
25951;DHT22;13748;52.240;6.002;2023-01-19T10:34:47;3.50;99.90
25951;DHT22;13748;52.240;6.002;2023-01-19T10:37:28;3.50;99.90
25951;DHT22;13748;52.240;6.002;2023-01-19T10:42:39;3.60;99.90
25951;DHT22;13748;52.240;6.002;2023-01-19T10:45:32;3.70;99.90
25951;DHT22;13748;52.240;6.002;2023-01-19T10:48:05;3.70;99.90
25951;DHT22;13748;52.240;6.002;2023-01-19T10:50:36;3.80;99.90
25951;DHT22;13748;52.240;6.002;2023-01-19T10:53:20;3.80;99.90
25951;DHT22;13748;52.240;6.002;2023-01-19T10:56:12;3.80;99.90
25951;DHT22;13748;52.240;6.002;2023-01-19T10:58:39;3.90;99.90
25951;DHT22;13748;52.240;6.002;2023-01-19T11:01:26;3.90;99.90
25951;DHT22;13748;52.240;6.002;2023-01-19T11:03:56;3.90;99.90
25951;DHT22;13748;52.240;6.002;2023-01-19T11:06:32;4.00;99.90
25951;DHT22;13748;52.240;6.002;2023-01-19T11:09:19;4.00;99.90
25951;DHT22;13748;52.240;6.002;2023-01-19T11:11:50;4.10;99.90
25951;DHT22;13748;52.240;6.002;2023-01-19T11:14:21;4.00;99.90
25951;DHT22;13748;52.240;6.002;2023-01-19T11:16:53;4.10;99.90
25951;DHT22;13748;52.240;6.002;2023-01-19T11:19:29;4.10;99.90
25951;DHT22;13748;52.240;6.002;2023-01-19T11:22:17;4.10;99.90
25951;DHT22;13748;52.240;6.002;2023-01-19T11:24:48;4.10;99.90
25951;DHT22;13748;52.240;6.002;2023-01-19T11:27:16;4.20;99.90
25951;DHT22;13748;52.240;6.002;2023-01-19T11:29:49;4.20;99.90
25951;DHT22;13748;52.240;6.002;2023-01-19T11:32:21;4.20;99.90
25951;DHT22;13748;52.240;6.002;2023-01-19T11:34:51;4.30;99.90
25951;DHT22;13748;52.240;6.002;2023-01-19T11:39:47;4.30;99.90
25951;DHT22;13748;52.240;6.002;2023-01-19T11:42:16;4.40;99.90
25951;DHT22;13748;52.240;6.002;2023-01-19T11:45:13;4.40;99.90
25951;DHT22;13748;52.240;6.002;2023-01-19T11:47:46;4.40;99.90
25951;DHT22;13748;52.240;6.002;2023-01-19T11:50:30;4.40;99.90
25951;DHT22;13748;52.240;6.002;2023-01-19T11:53:05;4.40;99.90
25951;DHT22;13748;52.240;6.002;2023-01-19T11:58:00;4.50;99.90
25951;DHT22;13748;52.240;6.002;2023-01-19T12:00:33;4.50;99.90
25951;DHT22;13748;52.240;6.002;2023-01-19T12:03:22;4.50;99.90
25951;DHT22;13748;52.240;6.002;2023-01-19T12:05:52;4.50;99.90
25951;DHT22;13748;52.240;6.002;2023-01-19T12:08:24;4.50;99.90
25951;DHT22;13748;52.240;6.002;2023-01-19T12:10:54;4.50;99.90
25951;DHT22;13748;52.240;6.002;2023-01-19T12:13:24;4.50;99.90
25951;DHT22;13748;52.240;6.002;2023-01-19T12:15:58;4.50;99.90
25951;DHT22;13748;52.240;6.002;2023-01-19T12:18:35;4.60;99.90
25951;DHT22;13748;52.240;6.002;2023-01-19T12:21:02;4.60;99.90
25951;DHT22;13748;52.240;6.002;2023-01-19T12:28:46;4.80;99.90
25951;DHT22;13748;52.240;6.002;2023-01-19T12:31:16;4.80;99.90
25951;DHT22;13748;52.240;6.002;2023-01-19T12:33:43;4.80;99.90
25951;DHT22;13748;52.240;6.002;2023-01-19T12:39:11;4.80;99.90
25951;DHT22;13748;52.240;6.002;2023-01-19T12:41:42;4.90;99.90
25951;DHT22;13748;52.240;6.002;2023-01-19T12:46:44;4.90;99.90
25951;DHT22;13748;52.240;6.002;2023-01-19T12:49:28;5.00;99.90
25951;DHT22;13748;52.240;6.002;2023-01-19T12:52:23;5.00;99.90
25951;DHT22;13748;52.240;6.002;2023-01-19T12:58:00;5.00;99.90
25951;DHT22;13748;52.240;6.002;2023-01-19T13:00:36;5.00;99.90
25951;DHT22;13748;52.240;6.002;2023-01-19T13:18:46;5.40;99.90
25951;DHT22;13748;52.240;6.002;2023-01-19T13:23:57;5.50;99.90
25951;DHT22;13748;52.240;6.002;2023-01-19T13:26:27;5.50;99.90
25951;DHT22;13748;52.240;6.002;2023-01-19T13:29:03;5.50;99.90
25951;DHT22;13748;52.240;6.002;2023-01-19T13:31:39;5.50;99.90
25951;DHT22;13748;52.240;6.002;2023-01-19T13:34:13;5.50;99.90
25951;DHT22;13748;52.240;6.002;2023-01-19T13:36:44;5.60;99.90
25951;DHT22;13748;52.240;6.002;2023-01-19T13:39:36;5.60;99.90
25951;DHT22;13748;52.240;6.002;2023-01-19T13:42:27;5.60;99.90
25951;DHT22;13748;52.240;6.002;2023-01-19T13:44:58;5.60;99.90
25951;DHT22;13748;52.240;6.002;2023-01-19T13:47:36;5.60;99.90
25951;DHT22;13748;52.240;6.002;2023-01-19T13:50:04;5.60;99.90
25951;DHT22;13748;52.240;6.002;2023-01-19T13:52:31;5.70;99.90
25951;DHT22;13748;52.240;6.002;2023-01-19T13:55:00;5.60;99.90
25951;DHT22;13748;52.240;6.002;2023-01-19T13:57:32;5.70;99.90
25951;DHT22;13748;52.240;6.002;2023-01-19T14:10:35;5.60;99.90
25951;DHT22;13748;52.240;6.002;2023-01-19T14:15:38;5.50;99.90
25951;DHT22;13748;52.240;6.002;2023-01-19T14:20:37;5.50;99.90
25951;DHT22;13748;52.240;6.002;2023-01-19T14:23:06;5.50;99.90
25951;DHT22;13748;52.240;6.002;2023-01-19T14:25:34;5.50;99.90
25951;DHT22;13748;52.240;6.002;2023-01-19T14:28:33;5.50;99.90
25951;DHT22;13748;52.240;6.002;2023-01-19T14:31:15;5.60;99.90
25951;DHT22;13748;52.240;6.002;2023-01-19T14:33:44;5.60;99.90
25951;DHT22;13748;52.240;6.002;2023-01-19T14:38:54;5.60;99.90
25951;DHT22;13748;52.240;6.002;2023-01-19T14:44:00;5.50;99.90
25951;DHT22;13748;52.240;6.002;2023-01-19T14:46:28;5.40;99.90
25951;DHT22;13748;52.240;6.002;2023-01-19T14:49:00;5.40;99.90
25951;DHT22;13748;52.240;6.002;2023-01-19T14:51:28;5.50;99.90
25951;DHT22;13748;52.240;6.002;2023-01-19T14:53:58;5.40;99.90
25951;DHT22;13748;52.240;6.002;2023-01-19T14:56:27;5.50;99.90
25951;DHT22;13748;52.240;6.002;2023-01-19T14:58:56;5.50;99.90
25951;DHT22;13748;52.240;6.002;2023-01-19T15:01:24;5.40;99.90
25951;DHT22;13748;52.240;6.002;2023-01-19T15:03:54;5.40;99.90
25951;DHT22;13748;52.240;6.002;2023-01-19T15:06:24;5.40;99.90
25951;DHT22;13748;52.240;6.002;2023-01-19T15:08:52;5.30;99.90
25951;DHT22;13748;52.240;6.002;2023-01-19T15:11:26;5.30;99.90
25951;DHT22;13748;52.240;6.002;2023-01-19T15:13:55;5.20;99.90
25951;DHT22;13748;52.240;6.002;2023-01-19T15:16:22;5.10;99.90
25951;DHT22;13748;52.240;6.002;2023-01-19T15:18:49;5.00;99.90
25951;DHT22;13748;52.240;6.002;2023-01-19T15:21:18;5.00;99.90
25951;DHT22;13748;52.240;6.002;2023-01-19T15:23:46;4.90;99.90
25951;DHT22;13748;52.240;6.002;2023-01-19T15:26:17;4.80;99.90
25951;DHT22;13748;52.240;6.002;2023-01-19T15:28:45;4.80;99.90
25951;DHT22;13748;52.240;6.002;2023-01-19T15:31:14;4.70;99.90
25951;DHT22;13748;52.240;6.002;2023-01-19T15:33:42;4.60;99.90
25951;DHT22;13748;52.240;6.002;2023-01-19T15:36:20;4.50;99.90
25951;DHT22;13748;52.240;6.002;2023-01-19T15:38:47;4.50;99.90
25951;DHT22;13748;52.240;6.002;2023-01-19T15:41:25;4.40;99.90
25951;DHT22;13748;52.240;6.002;2023-01-19T15:43:53;4.30;99.90
25951;DHT22;13748;52.240;6.002;2023-01-19T15:46:20;4.30;99.90
25951;DHT22;13748;52.240;6.002;2023-01-19T15:48:48;4.20;99.90
25951;DHT22;13748;52.240;6.002;2023-01-19T15:51:17;4.10;99.90
25951;DHT22;13748;52.240;6.002;2023-01-19T15:53:45;4.10;99.90
25951;DHT22;13748;52.240;6.002;2023-01-19T15:56:23;4.00;99.90
25951;DHT22;13748;52.240;6.002;2023-01-19T15:58:51;3.90;99.90
25951;DHT22;13748;52.240;6.002;2023-01-19T16:01:23;3.90;99.90
25951;DHT22;13748;52.240;6.002;2023-01-19T16:03:50;3.80;99.90
25951;DHT22;13748;52.240;6.002;2023-01-19T16:06:17;3.70;99.90
25951;DHT22;13748;52.240;6.002;2023-01-19T16:08:44;3.60;99.90
25951;DHT22;13748;52.240;6.002;2023-01-19T16:11:13;3.60;99.90
25951;DHT22;13748;52.240;6.002;2023-01-19T16:13:43;3.50;99.90
25951;DHT22;13748;52.240;6.002;2023-01-19T16:16:16;3.50;99.90
25951;DHT22;13748;52.240;6.002;2023-01-19T16:18:44;3.40;99.90
25951;DHT22;13748;52.240;6.002;2023-01-19T16:21:11;3.30;99.90
25951;DHT22;13748;52.240;6.002;2023-01-19T16:23:38;3.30;99.90
25951;DHT22;13748;52.240;6.002;2023-01-19T16:26:21;3.20;99.90
25951;DHT22;13748;52.240;6.002;2023-01-19T16:28:48;3.20;99.90
25951;DHT22;13748;52.240;6.002;2023-01-19T16:31:14;3.20;99.90
25951;DHT22;13748;52.240;6.002;2023-01-19T16:33:43;3.10;99.90
25951;DHT22;13748;52.240;6.002;2023-01-19T16:36:30;3.10;99.90
25951;DHT22;13748;52.240;6.002;2023-01-19T16:39:05;3.00;99.90
25951;DHT22;13748;52.240;6.002;2023-01-19T16:41:33;2.90;99.90
25951;DHT22;13748;52.240;6.002;2023-01-19T16:44:00;2.90;99.90
25951;DHT22;13748;52.240;6.002;2023-01-19T16:46:29;2.80;99.90
25951;DHT22;13748;52.240;6.002;2023-01-19T16:48:59;2.70;99.90
25951;DHT22;13748;52.240;6.002;2023-01-19T16:51:26;2.70;99.90
25951;DHT22;13748;52.240;6.002;2023-01-19T16:53:53;2.60;99.90
25951;DHT22;13748;52.240;6.002;2023-01-19T16:56:20;2.60;99.90
25951;DHT22;13748;52.240;6.002;2023-01-19T16:58:47;2.50;99.90
25951;DHT22;13748;52.240;6.002;2023-01-19T17:01:16;2.50;99.90
25951;DHT22;13748;52.240;6.002;2023-01-19T17:03:46;2.40;99.90
25951;DHT22;13748;52.240;6.002;2023-01-19T17:06:15;2.40;99.90
25951;DHT22;13748;52.240;6.002;2023-01-19T17:08:43;2.30;99.90
25951;DHT22;13748;52.240;6.002;2023-01-19T17:11:21;2.30;99.90
25951;DHT22;13748;52.240;6.002;2023-01-19T17:13:59;2.20;99.90
25951;DHT22;13748;52.240;6.002;2023-01-19T17:16:28;2.20;99.90
25951;DHT22;13748;52.240;6.002;2023-01-19T17:18:57;2.20;99.90
25951;DHT22;13748;52.240;6.002;2023-01-19T17:21:24;2.10;99.90
25951;DHT22;13748;52.240;6.002;2023-01-19T17:23:52;2.00;99.90
25951;DHT22;13748;52.240;6.002;2023-01-19T17:26:20;2.00;99.90
25951;DHT22;13748;52.240;6.002;2023-01-19T17:28:47;2.00;99.90
25951;DHT22;13748;52.240;6.002;2023-01-19T17:31:16;2.00;99.90
25951;DHT22;13748;52.240;6.002;2023-01-19T17:33:44;1.90;99.90
25951;DHT22;13748;52.240;6.002;2023-01-19T17:36:14;1.90;99.90